sensor_id;sensor_type;location;lat;lon;timestamp;pressure;altitude;pressure_sealevel;temperature;humidity
18504;BME280;9381;54.244;10.074;2023-04-21T00:03:52;101785.16;;;9.45;90.43
18504;BME280;9381;54.244;10.074;2023-04-21T00:08:54;101789.53;;;9.46;90.24
18504;BME280;9381;54.244;10.074;2023-04-21T00:13:54;101778.91;;;9.59;89.41
18504;BME280;9381;54.244;10.074;2023-04-21T00:18:55;101778.09;;;9.73;87.92
18504;BME280;9381;54.244;10.074;2023-04-21T00:23:55;101768.75;;;9.75;87.76
18504;BME280;9381;54.244;10.074;2023-04-21T00:28:55;101765.78;;;9.56;88.21
18504;BME280;9381;54.244;10.074;2023-04-21T00:33:56;101773.25;;;9.54;87.70
18504;BME280;9381;54.244;10.074;2023-04-21T00:38:56;101767.06;;;9.45;87.87
18504;BME280;9381;54.244;10.074;2023-04-21T00:44:07;101755.16;;;9.69;87.10
18504;BME280;9381;54.244;10.074;2023-04-21T00:49:07;101760.94;;;9.66;86.90
18504;BME280;9381;54.244;10.074;2023-04-21T00:54:08;101759.19;;;9.58;87.32
18504;BME280;9381;54.244;10.074;2023-04-21T00:59:10;101757.88;;;9.69;86.51
18504;BME280;9381;54.244;10.074;2023-04-21T01:04:11;101752.28;;;9.56;87.15
18504;BME280;9381;54.244;10.074;2023-04-21T01:09:11;101747.13;;;9.61;86.97
18504;BME280;9381;54.244;10.074;2023-04-21T01:14:12;101746.78;;;9.64;86.51
18504;BME280;9381;54.244;10.074;2023-04-21T01:19:12;101744.09;;;9.49;86.26
18504;BME280;9381;54.244;10.074;2023-04-21T01:24:13;101754.50;;;9.67;86.00
18504;BME280;9381;54.244;10.074;2023-04-21T01:29:13;101739.59;;;9.56;86.46
18504;BME280;9381;54.244;10.074;2023-04-21T01:34:14;101737.53;;;9.44;86.91
18504;BME280;9381;54.244;10.074;2023-04-21T01:39:15;101737.44;;;9.52;87.14
18504;BME280;9381;54.244;10.074;2023-04-21T01:44:15;101741.56;;;9.48;87.06
18504;BME280;9381;54.244;10.074;2023-04-21T01:49:15;101735.22;;;9.41;87.52
18504;BME280;9381;54.244;10.074;2023-04-21T01:54:16;101731.78;;;9.32;88.14
18504;BME280;9381;54.244;10.074;2023-04-21T01:59:16;101731.31;;;9.29;88.10
18504;BME280;9381;54.244;10.074;2023-04-21T02:04:16;101718.25;;;9.18;88.59
18504;BME280;9381;54.244;10.074;2023-04-21T02:09:16;101724.94;;;9.22;88.71
18504;BME280;9381;54.244;10.074;2023-04-21T02:14:17;101716.09;;;9.13;88.87
18504;BME280;9381;54.244;10.074;2023-04-21T02:19:17;101717.03;;;9.20;88.64
18504;BME280;9381;54.244;10.074;2023-04-21T02:24:17;101715.56;;;9.18;88.86
18504;BME280;9381;54.244;10.074;2023-04-21T02:29:18;101717.22;;;9.19;88.37
18504;BME280;9381;54.244;10.074;2023-04-21T02:34:18;101708.44;;;9.17;88.38
18504;BME280;9381;54.244;10.074;2023-04-21T02:39:19;101709.84;;;9.13;88.55
18504;BME280;9381;54.244;10.074;2023-04-21T02:44:20;101709.84;;;9.13;88.73
18504;BME280;9381;54.244;10.074;2023-04-21T02:49:20;101705.19;;;9.07;88.37
18504;BME280;9381;54.244;10.074;2023-04-21T02:54:20;101702.41;;;9.15;88.20
18504;BME280;9381;54.244;10.074;2023-04-21T02:59:20;101701.13;;;9.11;87.79
18504;BME280;9381;54.244;10.074;2023-04-21T03:04:21;101702.94;;;8.96;88.74
18504;BME280;9381;54.244;10.074;2023-04-21T03:09:23;101693.06;;;8.88;88.76
18504;BME280;9381;54.244;10.074;2023-04-21T03:14:23;101685.53;;;8.98;88.52
18504;BME280;9381;54.244;10.074;2023-04-21T03:19:23;101696.81;;;9.02;88.66
18504;BME280;9381;54.244;10.074;2023-04-21T03:24:24;101691.69;;;9.07;88.08
18504;BME280;9381;54.244;10.074;2023-04-21T03:29:24;101694.03;;;9.10;87.27
18504;BME280;9381;54.244;10.074;2023-04-21T03:34:24;101686.75;;;9.10;86.82
18504;BME280;9381;54.244;10.074;2023-04-21T03:39:24;101682.88;;;9.13;86.56
18504;BME280;9381;54.244;10.074;2023-04-21T03:44:25;101687.31;;;9.06;87.49
18504;BME280;9381;54.244;10.074;2023-04-21T03:49:26;101682.00;;;8.98;87.56
18504;BME280;9381;54.244;10.074;2023-04-21T03:54:26;101678.56;;;9.04;86.84
18504;BME280;9381;54.244;10.074;2023-04-21T03:59:26;101686.69;;;9.18;85.73
18504;BME280;9381;54.244;10.074;2023-04-21T04:04:27;101682.28;;;9.03;86.55
18504;BME280;9381;54.244;10.074;2023-04-21T04:09:27;101681.28;;;9.04;85.95
18504;BME280;9381;54.244;10.074;2023-04-21T04:14:27;101680.63;;;9.02;85.83
18504;BME280;9381;54.244;10.074;2023-04-21T04:19:30;101679.41;;;9.04;85.62
18504;BME280;9381;54.244;10.074;2023-04-21T04:24:32;101679.22;;;9.06;85.35
18504;BME280;9381;54.244;10.074;2023-04-21T04:29:32;101682.47;;;9.01;85.29
18504;BME280;9381;54.244;10.074;2023-04-21T04:34:34;101675.22;;;9.02;85.57
18504;BME280;9381;54.244;10.074;2023-04-21T04:39:36;101673.00;;;9.05;85.81
18504;BME280;9381;54.244;10.074;2023-04-21T04:44:36;101668.81;;;9.03;86.23
18504;BME280;9381;54.244;10.074;2023-04-21T04:49:37;101676.19;;;9.09;86.00
18504;BME280;9381;54.244;10.074;2023-04-21T04:54:37;101672.16;;;9.05;86.30
18504;BME280;9381;54.244;10.074;2023-04-21T04:59:38;101678.09;;;9.00;86.33
18504;BME280;9381;54.244;10.074;2023-04-21T05:04:38;101667.97;;;9.17;86.31
18504;BME280;9381;54.244;10.074;2023-04-21T05:09:38;101671.81;;;9.22;86.31
18504;BME280;9381;54.244;10.074;2023-04-21T05:14:38;101678.25;;;9.36;85.42
18504;BME280;9381;54.244;10.074;2023-04-21T05:19:39;101674.13;;;9.40;85.28
18504;BME280;9381;54.244;10.074;2023-04-21T05:24:42;101676.56;;;9.49;84.59
18504;BME280;9381;54.244;10.074;2023-04-21T05:29:43;101674.50;;;9.66;84.14
18504;BME280;9381;54.244;10.074;2023-04-21T05:34:43;101683.78;;;9.78;83.04
18504;BME280;9381;54.244;10.074;2023-04-21T05:39:43;101682.50;;;9.88;83.16
18504;BME280;9381;54.244;10.074;2023-04-21T05:44:43;101677.22;;;10.01;82.08
18504;BME280;9381;54.244;10.074;2023-04-21T05:49:44;101677.59;;;10.13;81.36
18504;BME280;9381;54.244;10.074;2023-04-21T05:54:49;101679.28;;;10.35;80.54
18504;BME280;9381;54.244;10.074;2023-04-21T05:59:49;101674.69;;;10.50;79.98
18504;BME280;9381;54.244;10.074;2023-04-21T06:04:49;101675.47;;;10.65;80.04
18504;BME280;9381;54.244;10.074;2023-04-21T06:09:50;101670.28;;;10.70;81.11
18504;BME280;9381;54.244;10.074;2023-04-21T06:14:50;101665.38;;;10.80;81.27
18504;BME280;9381;54.244;10.074;2023-04-21T06:19:50;101660.09;;;10.93;81.17
18504;BME280;9381;54.244;10.074;2023-04-21T06:24:53;101665.50;;;10.93;80.79
18504;BME280;9381;54.244;10.074;2023-04-21T06:29:53;101656.44;;;11.07;80.92
18504;BME280;9381;54.244;10.074;2023-04-21T06:34:55;101653.47;;;11.29;79.94
18504;BME280;9381;54.244;10.074;2023-04-21T06:39:55;101639.59;;;11.45;78.28
18504;BME280;9381;54.244;10.074;2023-04-21T06:44:55;101644.72;;;11.61;79.12
18504;BME280;9381;54.244;10.074;2023-04-21T06:49:56;101639.31;;;11.61;79.57
18504;BME280;9381;54.244;10.074;2023-04-21T06:54:56;101647.28;;;11.75;78.28
18504;BME280;9381;54.244;10.074;2023-04-21T06:59:56;101636.47;;;11.88;78.54
18504;BME280;9381;54.244;10.074;2023-04-21T07:04:57;101632.78;;;11.96;78.54
18504;BME280;9381;54.244;10.074;2023-04-21T07:09:57;101636.38;;;12.22;78.10
18504;BME280;9381;54.244;10.074;2023-04-21T07:14:57;101627.88;;;12.38;76.87
18504;BME280;9381;54.244;10.074;2023-04-21T07:19:57;101627.88;;;12.51;77.14
18504;BME280;9381;54.244;10.074;2023-04-21T07:24:58;101618.47;;;12.60;75.72
18504;BME280;9381;54.244;10.074;2023-04-21T07:29:58;101617.88;;;12.78;77.83
18504;BME280;9381;54.244;10.074;2023-04-21T07:34:58;101615.34;;;12.96;76.45
18504;BME280;9381;54.244;10.074;2023-04-21T07:40:00;101617.59;;;13.31;76.13
18504;BME280;9381;54.244;10.074;2023-04-21T07:45:01;101620.47;;;13.56;75.40
18504;BME280;9381;54.244;10.074;2023-04-21T07:50:01;101618.44;;;13.82;74.79
18504;BME280;9381;54.244;10.074;2023-04-21T07:55:02;101610.84;;;13.97;74.30
18504;BME280;9381;54.244;10.074;2023-04-21T08:00:04;101603.25;;;14.12;73.10
18504;BME280;9381;54.244;10.074;2023-04-21T08:05:05;101598.59;;;14.19;72.85
18504;BME280;9381;54.244;10.074;2023-04-21T08:10:06;101602.75;;;14.28;73.36
18504;BME280;9381;54.244;10.074;2023-04-21T08:15:07;101597.09;;;14.54;73.24
18504;BME280;9381;54.244;10.074;2023-04-21T08:20:08;101598.13;;;14.84;72.67
18504;BME280;9381;54.244;10.074;2023-04-21T08:25:08;101595.50;;;15.13;71.35
18504;BME280;9381;54.244;10.074;2023-04-21T08:30:09;101591.09;;;15.55;69.57
18504;BME280;9381;54.244;10.074;2023-04-21T08:35:10;101582.03;;;15.90;69.67
18504;BME280;9381;54.244;10.074;2023-04-21T08:40:10;101579.22;;;15.97;69.29
18504;BME280;9381;54.244;10.074;2023-04-21T08:45:11;101584.78;;;15.90;68.35
18504;BME280;9381;54.244;10.074;2023-04-21T08:50:12;101581.34;;;15.95;66.71
18504;BME280;9381;54.244;10.074;2023-04-21T08:55:14;101580.22;;;16.14;68.33
18504;BME280;9381;54.244;10.074;2023-04-21T09:00:14;101585.03;;;16.30;67.09
18504;BME280;9381;54.244;10.074;2023-04-21T09:05:21;101581.06;;;16.44;68.99
18504;BME280;9381;54.244;10.074;2023-04-21T09:10:22;101569.94;;;16.80;67.40
18504;BME280;9381;54.244;10.074;2023-04-21T09:15:23;101570.19;;;16.90;66.04
18504;BME280;9381;54.244;10.074;2023-04-21T09:20:23;101571.84;;;16.91;66.45
18504;BME280;9381;54.244;10.074;2023-04-21T09:25:24;101569.47;;;16.71;65.30
18504;BME280;9381;54.244;10.074;2023-04-21T09:30:24;101570.06;;;17.08;64.61
18504;BME280;9381;54.244;10.074;2023-04-21T09:35:32;101564.69;;;17.47;65.52
18504;BME280;9381;54.244;10.074;2023-04-21T09:40:32;101573.81;;;17.64;65.13
18504;BME280;9381;54.244;10.074;2023-04-21T09:45:34;101564.91;;;17.85;63.35
18504;BME280;9381;54.244;10.074;2023-04-21T09:50:35;101562.75;;;18.15;62.33
18504;BME280;9381;54.244;10.074;2023-04-21T09:55:36;101555.47;;;18.48;61.03
18504;BME280;9381;54.244;10.074;2023-04-21T10:00:37;101555.59;;;18.91;61.22
18504;BME280;9381;54.244;10.074;2023-04-21T10:05:38;101553.00;;;19.39;59.24
18504;BME280;9381;54.244;10.074;2023-04-21T10:10:39;101548.41;;;19.23;57.16
18504;BME280;9381;54.244;10.074;2023-04-21T10:15:40;101545.75;;;19.71;58.12
18504;BME280;9381;54.244;10.074;2023-04-21T10:21:00;101534.19;;;20.17;55.87
18504;BME280;9381;54.244;10.074;2023-04-21T10:26:08;101536.16;;;21.31;55.02
18504;BME280;9381;54.244;10.074;2023-04-21T10:31:19;101531.88;;;21.55;53.75
18504;BME280;9381;54.244;10.074;2023-04-21T10:36:23;101519.41;;;22.24;54.69
18504;BME280;9381;54.244;10.074;2023-04-21T10:41:28;101519.34;;;21.89;51.39
18504;BME280;9381;54.244;10.074;2023-04-21T10:46:33;101516.88;;;21.92;51.31
18504;BME280;9381;54.244;10.074;2023-04-21T10:57:05;101503.91;;;21.78;53.70
18504;BME280;9381;54.244;10.074;2023-04-21T11:02:10;101499.00;;;22.20;51.01
18504;BME280;9381;54.244;10.074;2023-04-21T11:07:14;101491.28;;;21.97;50.39
18504;BME280;9381;54.244;10.074;2023-04-21T11:12:17;101479.16;;;22.28;51.70
18504;BME280;9381;54.244;10.074;2023-04-21T11:17:18;101478.06;;;22.69;49.33
18504;BME280;9381;54.244;10.074;2023-04-21T11:22:21;101479.13;;;22.83;50.26
18504;BME280;9381;54.244;10.074;2023-04-21T11:27:22;101469.75;;;22.89;47.87
18504;BME280;9381;54.244;10.074;2023-04-21T11:32:25;101459.22;;;23.01;49.57
18504;BME280;9381;54.244;10.074;2023-04-21T11:37:25;101475.31;;;22.64;48.26
18504;BME280;9381;54.244;10.074;2023-04-21T11:42:27;101463.66;;;22.92;48.02
18504;BME280;9381;54.244;10.074;2023-04-21T11:47:27;101456.00;;;22.59;49.42
18504;BME280;9381;54.244;10.074;2023-04-21T11:52:33;101464.84;;;22.41;49.76
18504;BME280;9381;54.244;10.074;2023-04-21T11:57:35;101454.34;;;22.28;51.59
18504;BME280;9381;54.244;10.074;2023-04-21T12:02:35;101451.03;;;22.71;49.86
18504;BME280;9381;54.244;10.074;2023-04-21T12:07:45;101442.59;;;23.26;49.33
18504;BME280;9381;54.244;10.074;2023-04-21T12:12:47;101434.19;;;22.77;48.83
18504;BME280;9381;54.244;10.074;2023-04-21T12:17:49;101425.38;;;22.70;50.93
18504;BME280;9381;54.244;10.074;2023-04-21T12:22:50;101419.53;;;22.92;48.99
18504;BME280;9381;54.244;10.074;2023-04-21T12:27:52;101427.72;;;23.12;48.48
18504;BME280;9381;54.244;10.074;2023-04-21T12:32:56;101416.34;;;22.15;50.01
18504;BME280;9381;54.244;10.074;2023-04-21T12:37:56;101412.13;;;22.72;49.90
18504;BME280;9381;54.244;10.074;2023-04-21T12:42:56;101411.81;;;22.89;49.54
18504;BME280;9381;54.244;10.074;2023-04-21T12:47:56;101408.44;;;23.17;49.17
18504;BME280;9381;54.244;10.074;2023-04-21T12:52:58;101397.41;;;23.60;48.36
18504;BME280;9381;54.244;10.074;2023-04-21T12:57:58;101403.81;;;22.87;50.43
18504;BME280;9381;54.244;10.074;2023-04-21T13:02:58;101394.81;;;22.62;50.66
18504;BME280;9381;54.244;10.074;2023-04-21T13:07:59;101388.19;;;22.48;50.57
18504;BME280;9381;54.244;10.074;2023-04-21T13:12:59;101383.81;;;22.42;49.35
18504;BME280;9381;54.244;10.074;2023-04-21T13:17:59;101378.25;;;22.57;49.65
18504;BME280;9381;54.244;10.074;2023-04-21T13:22:59;101375.28;;;21.93;49.94
18504;BME280;9381;54.244;10.074;2023-04-21T13:28:00;101365.06;;;22.34;51.75
18504;BME280;9381;54.244;10.074;2023-04-21T13:33:00;101358.69;;;22.58;49.86
18504;BME280;9381;54.244;10.074;2023-04-21T13:38:00;101361.75;;;22.47;50.00
18504;BME280;9381;54.244;10.074;2023-04-21T13:43:01;101349.69;;;21.98;49.84
18504;BME280;9381;54.244;10.074;2023-04-21T13:48:01;101346.91;;;21.83;52.80
18504;BME280;9381;54.244;10.074;2023-04-21T13:53:02;101334.22;;;21.62;51.73
18504;BME280;9381;54.244;10.074;2023-04-21T13:58:03;101319.03;;;21.34;53.08
18504;BME280;9381;54.244;10.074;2023-04-21T14:03:03;101321.44;;;20.96;54.58
18504;BME280;9381;54.244;10.074;2023-04-21T14:08:04;101310.34;;;20.81;53.99
18504;BME280;9381;54.244;10.074;2023-04-21T14:13:05;101308.09;;;20.63;54.89
18504;BME280;9381;54.244;10.074;2023-04-21T14:18:05;101305.59;;;20.10;54.85
18504;BME280;9381;54.244;10.074;2023-04-21T14:23:06;101291.47;;;20.33;56.97
18504;BME280;9381;54.244;10.074;2023-04-21T14:28:06;101286.59;;;19.67;56.75
18504;BME280;9381;54.244;10.074;2023-04-21T14:33:07;101279.63;;;19.86;56.07
18504;BME280;9381;54.244;10.074;2023-04-21T14:38:08;101274.00;;;19.71;57.62
18504;BME280;9381;54.244;10.074;2023-04-21T14:43:08;101271.28;;;19.13;57.82
18504;BME280;9381;54.244;10.074;2023-04-21T14:48:10;101266.63;;;18.87;59.00
18504;BME280;9381;54.244;10.074;2023-04-21T14:53:13;101260.84;;;18.89;60.12
18504;BME280;9381;54.244;10.074;2023-04-21T14:58:13;101253.06;;;18.76;60.66
18504;BME280;9381;54.244;10.074;2023-04-21T15:03:13;101245.25;;;18.63;60.82
18504;BME280;9381;54.244;10.074;2023-04-21T15:08:14;101237.16;;;18.51;59.61
18504;BME280;9381;54.244;10.074;2023-04-21T15:13:17;101227.41;;;18.60;60.09
18504;BME280;9381;54.244;10.074;2023-04-21T15:18:17;101234.88;;;18.43;61.27
18504;BME280;9381;54.244;10.074;2023-04-21T15:23:17;101220.06;;;18.23;61.07
18504;BME280;9381;54.244;10.074;2023-04-21T15:28:18;101204.22;;;18.03;60.71
18504;BME280;9381;54.244;10.074;2023-04-21T15:33:18;101201.31;;;17.93;61.94
18504;BME280;9381;54.244;10.074;2023-04-21T15:38:19;101203.44;;;17.87;61.88
18504;BME280;9381;54.244;10.074;2023-04-21T15:43:20;101203.47;;;17.91;62.42
18504;BME280;9381;54.244;10.074;2023-04-21T15:48:20;101187.88;;;17.71;63.31
18504;BME280;9381;54.244;10.074;2023-04-21T15:53:21;101191.75;;;17.75;63.82
18504;BME280;9381;54.244;10.074;2023-04-21T15:58:21;101186.28;;;17.75;63.63
18504;BME280;9381;54.244;10.074;2023-04-21T16:03:22;101179.72;;;17.54;63.84
18504;BME280;9381;54.244;10.074;2023-04-21T16:08:22;101176.78;;;17.61;63.67
18504;BME280;9381;54.244;10.074;2023-04-21T16:13:22;101170.50;;;17.44;64.83
18504;BME280;9381;54.244;10.074;2023-04-21T16:18:23;101170.00;;;17.47;63.71
18504;BME280;9381;54.244;10.074;2023-04-21T16:23:23;101167.78;;;17.27;65.09
18504;BME280;9381;54.244;10.074;2023-04-21T16:28:25;101158.75;;;17.10;65.23
18504;BME280;9381;54.244;10.074;2023-04-21T16:33:25;101160.13;;;16.96;66.06
18504;BME280;9381;54.244;10.074;2023-04-21T16:38:25;101154.31;;;16.93;66.73
18504;BME280;9381;54.244;10.074;2023-04-21T16:43:26;101142.91;;;16.79;66.78
18504;BME280;9381;54.244;10.074;2023-04-21T16:48:26;101146.63;;;16.57;66.65
18504;BME280;9381;54.244;10.074;2023-04-21T16:53:26;101149.28;;;16.40;67.74
18504;BME280;9381;54.244;10.074;2023-04-21T16:58:27;101142.69;;;16.25;68.33
18504;BME280;9381;54.244;10.074;2023-04-21T17:03:27;101137.25;;;16.13;68.55
18504;BME280;9381;54.244;10.074;2023-04-21T17:08:28;101129.03;;;15.97;69.10
18504;BME280;9381;54.244;10.074;2023-04-21T17:13:28;101116.34;;;15.91;68.98
18504;BME280;9381;54.244;10.074;2023-04-21T17:18:28;101124.69;;;15.73;70.40
18504;BME280;9381;54.244;10.074;2023-04-21T17:23:29;101131.13;;;15.67;70.64
18504;BME280;9381;54.244;10.074;2023-04-21T17:28:29;101119.88;;;15.52;69.83
18504;BME280;9381;54.244;10.074;2023-04-21T17:33:29;101119.28;;;15.50;69.43
18504;BME280;9381;54.244;10.074;2023-04-21T17:38:30;101112.06;;;15.32;69.46
18504;BME280;9381;54.244;10.074;2023-04-21T17:43:31;101109.41;;;15.14;69.51
18504;BME280;9381;54.244;10.074;2023-04-21T17:48:31;101113.25;;;15.02;68.90
18504;BME280;9381;54.244;10.074;2023-04-21T17:53:32;101111.53;;;14.78;69.88
18504;BME280;9381;54.244;10.074;2023-04-21T17:58:32;101114.84;;;14.80;68.95
18504;BME280;9381;54.244;10.074;2023-04-21T18:03:33;101108.66;;;14.50;68.92
18504;BME280;9381;54.244;10.074;2023-04-21T18:08:40;101115.59;;;14.46;69.08
18504;BME280;9381;54.244;10.074;2023-04-21T18:13:41;101113.81;;;14.40;69.21
18504;BME280;9381;54.244;10.074;2023-04-21T18:18:41;101113.41;;;14.25;69.28
18504;BME280;9381;54.244;10.074;2023-04-21T18:23:42;101119.66;;;13.96;70.22
18504;BME280;9381;54.244;10.074;2023-04-21T18:28:42;101119.06;;;13.76;70.13
18504;BME280;9381;54.244;10.074;2023-04-21T18:33:43;101121.63;;;13.71;69.92
18504;BME280;9381;54.244;10.074;2023-04-21T18:38:43;101126.16;;;13.59;69.65
18504;BME280;9381;54.244;10.074;2023-04-21T18:43:43;101118.59;;;13.43;70.52
18504;BME280;9381;54.244;10.074;2023-04-21T18:48:43;101123.88;;;13.20;71.19
18504;BME280;9381;54.244;10.074;2023-04-21T18:53:44;101119.91;;;12.98;70.52
18504;BME280;9381;54.244;10.074;2023-04-21T18:58:45;101117.84;;;12.94;70.47
18504;BME280;9381;54.244;10.074;2023-04-21T19:03:45;101124.38;;;12.86;69.55
18504;BME280;9381;54.244;10.074;2023-04-21T19:08:46;101125.16;;;12.93;68.98
18504;BME280;9381;54.244;10.074;2023-04-21T19:13:46;101125.31;;;12.98;68.01
18504;BME280;9381;54.244;10.074;2023-04-21T19:18:47;101122.09;;;12.83;67.78
18504;BME280;9381;54.244;10.074;2023-04-21T19:23:47;101122.63;;;12.67;67.68
18504;BME280;9381;54.244;10.074;2023-04-21T19:28:47;101116.16;;;12.68;67.17
18504;BME280;9381;54.244;10.074;2023-04-21T19:33:48;101110.75;;;12.37;67.95
18504;BME280;9381;54.244;10.074;2023-04-21T19:38:49;101102.19;;;12.40;68.37
18504;BME280;9381;54.244;10.074;2023-04-21T19:43:49;101106.16;;;12.38;68.05
18504;BME280;9381;54.244;10.074;2023-04-21T19:48:50;101110.03;;;12.17;68.44
18504;BME280;9381;54.244;10.074;2023-04-21T19:53:50;101110.56;;;12.01;69.05
18504;BME280;9381;54.244;10.074;2023-04-21T19:58:50;101103.09;;;11.90;68.28
18504;BME280;9381;54.244;10.074;2023-04-21T20:03:50;101108.47;;;12.03;67.75
18504;BME280;9381;54.244;10.074;2023-04-21T20:08:51;101106.00;;;11.95;68.06
18504;BME280;9381;54.244;10.074;2023-04-21T20:13:52;101100.81;;;11.87;68.03
18504;BME280;9381;54.244;10.074;2023-04-21T20:18:52;101100.25;;;11.72;68.96
18504;BME280;9381;54.244;10.074;2023-04-21T20:23:54;101095.66;;;11.79;68.58
18504;BME280;9381;54.244;10.074;2023-04-21T20:28:54;101092.75;;;11.74;68.15
18504;BME280;9381;54.244;10.074;2023-04-21T20:33:55;101086.91;;;11.77;68.21
18504;BME280;9381;54.244;10.074;2023-04-21T20:38:55;101082.69;;;11.81;68.54
18504;BME280;9381;54.244;10.074;2023-04-21T20:43:56;101082.78;;;11.68;68.96
18504;BME280;9381;54.244;10.074;2023-04-21T20:48:56;101089.03;;;11.63;69.49
18504;BME280;9381;54.244;10.074;2023-04-21T20:53:57;101079.69;;;11.52;69.99
18504;BME280;9381;54.244;10.074;2023-04-21T20:58:57;101085.72;;;11.61;69.92
18504;BME280;9381;54.244;10.074;2023-04-21T21:03:58;101089.13;;;11.37;70.61
18504;BME280;9381;54.244;10.074;2023-04-21T21:08:59;101082.91;;;11.23;71.32
18504;BME280;9381;54.244;10.074;2023-04-21T21:14:00;101077.34;;;10.86;73.18
18504;BME280;9381;54.244;10.074;2023-04-21T21:19:00;101075.50;;;10.86;73.12
18504;BME280;9381;54.244;10.074;2023-04-21T21:24:00;101075.69;;;10.85;73.31
18504;BME280;9381;54.244;10.074;2023-04-21T21:29:01;101081.75;;;10.74;73.90
18504;BME280;9381;54.244;10.074;2023-04-21T21:34:01;101069.88;;;10.68;74.46
18504;BME280;9381;54.244;10.074;2023-04-21T21:39:03;101076.75;;;10.58;74.66
18504;BME280;9381;54.244;10.074;2023-04-21T21:44:03;101064.47;;;10.68;74.50
18504;BME280;9381;54.244;10.074;2023-04-21T21:49:03;101066.31;;;10.48;74.90
18504;BME280;9381;54.244;10.074;2023-04-21T21:54:03;101062.59;;;10.56;74.46
18504;BME280;9381;54.244;10.074;2023-04-21T21:59:05;101053.44;;;10.70;72.30
18504;BME280;9381;54.244;10.074;2023-04-21T22:04:06;101047.81;;;10.78;70.78
18504;BME280;9381;54.244;10.074;2023-04-21T22:09:06;101045.28;;;10.89;69.88
18504;BME280;9381;54.244;10.074;2023-04-21T22:14:06;101049.22;;;11.00;69.42
18504;BME280;9381;54.244;10.074;2023-04-21T22:19:08;101044.00;;;11.05;69.40
18504;BME280;9381;54.244;10.074;2023-04-21T22:24:09;101040.06;;;11.01;69.17
18504;BME280;9381;54.244;10.074;2023-04-21T22:29:10;101044.06;;;10.92;69.42
18504;BME280;9381;54.244;10.074;2023-04-21T22:34:10;101039.66;;;10.91;68.86
18504;BME280;9381;54.244;10.074;2023-04-21T22:39:13;101027.97;;;11.10;67.21
18504;BME280;9381;54.244;10.074;2023-04-21T22:44:14;101023.38;;;11.10;66.30
18504;BME280;9381;54.244;10.074;2023-04-21T22:49:14;101020.69;;;11.04;65.71
18504;BME280;9381;54.244;10.074;2023-04-21T22:54:16;101030.50;;;10.98;66.01
18504;BME280;9381;54.244;10.074;2023-04-21T22:59:16;101027.38;;;10.95;65.55
18504;BME280;9381;54.244;10.074;2023-04-21T23:04:16;101024.66;;;10.95;65.12
18504;BME280;9381;54.244;10.074;2023-04-21T23:09:17;101009.03;;;10.97;65.43
18504;BME280;9381;54.244;10.074;2023-04-21T23:14:17;101001.94;;;11.02;64.55
18504;BME280;9381;54.244;10.074;2023-04-21T23:19:17;100999.66;;;11.06;64.54
18504;BME280;9381;54.244;10.074;2023-04-21T23:24:17;100994.25;;;10.99;65.00
18504;BME280;9381;54.244;10.074;2023-04-21T23:29:18;100996.34;;;10.91;65.36
18504;BME280;9381;54.244;10.074;2023-04-21T23:34:18;100993.69;;;10.78;65.68
18504;BME280;9381;54.244;10.074;2023-04-21T23:39:18;100983.28;;;10.81;65.83
18504;BME280;9381;54.244;10.074;2023-04-21T23:44:20;100977.88;;;10.81;65.38
18504;BME280;9381;54.244;10.074;2023-04-21T23:49:20;100976.00;;;10.75;66.34
18504;BME280;9381;54.244;10.074;2023-04-21T23:54:21;100972.50;;;10.68;66.17
18504;BME280;9381;54.244;10.074;2023-04-21T23:59:21;100964.56;;;10.86;65.74
